Time;durP1;ratioP1;P1;durP2;ratioP2;P2;SDS_P1;SDS_P2;PMS_P1;PMS_P2;Temp;Humidity;BMP_temperature;BMP_pressure;BME280_temperature;BME280_humidity;BME280_pressure;Samples;Min_cycle;Max_cycle;Signal;HPM_P1;HPM_P2
2021/05/15 00:04:05;;;;;;;1999.90;999.90;;;;;;;11.05;73.41;100382.03;15808459;28;20118;-62
2021/05/15 00:11:37;;;;;;;1999.90;999.90;;;;;;;10.93;74.11;100380.00;15808321;28;20052;-64
2021/05/15 00:19:09;;;;;;;1999.90;999.90;;;;;;;10.85;74.13;100387.31;15789797;28;20169;-63
2021/05/15 00:26:41;;;;;;;1999.90;999.90;;;;;;;10.68;74.19;100384.69;15807229;28;20133;-63
2021/05/15 00:34:13;;;;;;;1999.90;999.90;;;;;;;10.56;74.36;100373.47;15772214;28;20043;-63
2021/05/15 00:41:45;;;;;;;1999.90;999.90;;;;;;;10.41;73.94;100372.91;15806531;28;20047;-64
2021/05/15 00:49:17;;;;;;;1999.90;999.90;;;;;;;10.42;74.40;100370.97;15788506;28;20055;-63
2021/05/15 00:56:49;;;;;;;1999.90;999.90;;;;;;;10.25;75.09;100369.09;15805997;28;20125;-63
2021/05/15 01:04:21;;;;;;;1999.90;999.90;;;;;;;10.35;75.37;100381.81;15786972;28;20063;-63
2021/05/15 01:11:53;;;;;;;1999.90;999.90;;;;;;;10.17;75.94;100371.91;15805486;28;20052;-62
2021/05/15 01:19:25;;;;;;;1999.90;999.90;;;;;;;10.25;74.91;100363.53;15804194;28;20093;-62
2021/05/15 01:26:59;;;;;;;1999.90;999.90;;;;;;;10.02;74.79;100362.19;15785355;28;20093;-63
2021/05/15 01:34:31;;;;;;;;;;;;;;;9.94;74.88;100365.84;15803679;28;20048;-64
2021/05/15 01:42:03;;;;;;;1999.90;999.90;;;;;;;9.81;74.62;100374.13;15803537;28;19952;-63
2021/05/15 01:49:35;;;;;;;1999.90;999.90;;;;;;;9.76;74.67;100368.72;15784687;28;20078;-64
2021/05/15 01:57:07;;;;;;;1999.90;999.90;;;;;;;9.76;74.35;100359.53;15785178;28;20044;-64
2021/05/15 02:04:39;;;;;;;1999.90;999.90;;;;;;;9.61;74.98;100360.13;15802937;28;20059;-64
2021/05/15 02:12:11;;;;;;;1999.90;999.90;;;;;;;9.67;74.71;100348.44;15805268;28;20052;-63
2021/05/15 02:19:43;;;;;;;1999.90;999.90;;;;;;;9.67;74.45;100351.22;15802390;28;20072;-64
2021/05/15 02:27:15;;;;;;;1999.90;999.90;;;;;;;9.55;74.54;100340.81;15783434;28;20044;-62
2021/05/15 02:34:47;;;;;;;1999.90;999.90;;;;;;;9.63;74.84;100336.34;15801487;28;20123;-63
2021/05/15 02:42:19;;;;;;;1999.90;999.90;;;;;;;9.62;75.09;100337.50;15783380;28;20151;-62
2021/05/15 02:49:51;;;;;;;1999.90;999.90;;;;;;;9.86;74.70;100319.31;15783095;28;20075;-62
2021/05/15 02:57:23;;;;;;;1999.90;999.90;;;;;;;9.86;75.24;100305.38;15801097;28;20063;-63
2021/05/15 03:04:54;;;;;;;1999.90;999.90;;;;;;;9.73;75.00;100302.53;15783856;28;20055;-62
2021/05/15 03:12:27;;;;;;;1999.90;999.90;;;;;;;9.50;76.30;100290.06;15812361;28;20071;-64
2021/05/15 03:19:58;;;;;;;1999.90;999.90;;;;;;;9.69;75.35;100284.88;15793312;28;20481;-64
2021/05/15 03:27:31;;;;;;;1999.90;999.90;;;;;;;9.84;75.29;100273.09;15810736;28;20577;-64
2021/05/15 03:35:03;;;;;;;1999.90;999.90;;;;;;;9.67;77.21;100272.41;15810328;28;20036;-63
2021/05/15 03:42:35;;;;;;;1999.90;999.90;;;;;;;10.11;75.73;100268.16;15809340;28;20052;-64
2021/05/15 03:50:08;;;;;;;1999.90;999.90;;;;;;;10.23;74.74;100273.81;15791300;28;20095;-64
2021/05/15 03:57:41;;;;;;;1999.90;999.90;;;;;;;10.49;74.55;100276.38;15790636;28;20106;-65
2021/05/15 04:05:13;;;;;;;1999.90;999.90;;;;;;;10.49;74.26;100275.53;15808428;28;20505;-64
2021/05/15 04:12:49;;;;;;;1999.90;999.90;;;;;;;10.73;74.05;100280.38;15790859;28;20448;-62
2021/05/15 04:20:21;;;;;;;1999.90;999.90;;;;;;;10.96;73.17;100276.84;15790427;28;20075;-62
2021/05/15 04:27:54;;;;;;;1999.90;999.90;;;;;;;10.96;72.60;100276.03;15790462;28;20047;-65
2021/05/15 04:35:26;;;;;;;1999.90;999.90;;;;;;;11.16;72.75;100282.69;15788591;28;20048;-64
2021/05/15 04:42:59;;;;;;;1999.90;999.90;;;;;;;11.52;72.00;100299.47;15805918;28;20048;-64
2021/05/15 04:50:30;;;;;;;1999.90;999.90;;;;;;;11.63;71.65;100301.78;15787982;28;20562;-64
2021/05/15 04:58:11;;;;;;;1999.90;999.90;;;;;;;11.59;72.42;100298.91;15805492;28;20040;-64
2021/05/15 05:05:43;;;;;;;1999.90;999.90;;;;;;;11.85;72.26;100309.72;15769840;28;20052;-64
2021/05/15 05:13:16;;;;;;;1999.90;999.90;;;;;;;12.32;71.50;100309.97;15787043;28;20043;-63
2021/05/15 05:20:47;;;;;;;1999.90;999.90;;;;;;;12.25;72.04;100322.94;15805240;28;20131;-64
2021/05/15 05:28:24;;;;;;;1999.90;999.90;;;;;;;13.01;70.04;100307.88;15803778;28;20067;-63
2021/05/15 05:35:56;;;;;;;1999.90;999.90;;;;;;;13.31;70.15;100322.31;15785812;28;20097;-63
2021/05/15 05:43:28;;;;;;;1999.90;999.90;;;;;;;13.96;68.73;100324.69;15785082;28;20040;-65
2021/05/15 05:51:00;;;;;;;1999.90;999.90;;;;;;;13.97;69.30;100332.78;15803185;28;20048;-64
2021/05/15 05:58:32;;;;;;;1999.90;999.90;;;;;;;16.04;64.35;100325.50;15802747;28;20062;-64
2021/05/15 06:06:04;;;;;;;1999.90;999.90;;;;;;;17.14;60.08;100324.13;15785133;28;20498;-65
2021/05/15 06:13:37;;;;;;;1999.90;999.90;;;;;;;17.38;59.21;100341.66;15766421;28;20054;-64
2021/05/15 06:21:08;;;;;;;1999.90;999.90;;;;;;;16.65;60.53;100332.78;15777298;28;20050;-64
2021/05/15 06:28:41;;;;;;;1999.90;999.90;;;;;;;17.32;58.43;100341.22;15766574;28;20044;-64
2021/05/15 06:36:12;;;;;;;1999.90;999.90;;;;;;;17.46;58.41;100341.34;15802300;28;20050;-64
2021/05/15 06:43:45;;;;;;;1999.90;999.90;;;;;;;17.59;57.55;100341.84;15793861;28;20047;-64
2021/05/15 06:51:17;;;;;;;1999.90;999.90;;;;;;;19.45;53.99;100344.47;15778240;28;20047;-63
2021/05/15 06:58:49;;;;;;;1999.90;999.90;;;;;;;20.93;50.25;100341.00;15794697;28;20051;-65
2021/05/15 07:06:20;;;;;;;1999.90;999.90;;;;;;;21.17;48.95;100337.25;15793962;28;20036;-66
2021/05/15 07:13:53;;;;;;;1999.90;999.90;;;;;;;21.31;48.22;100334.31;15794733;28;20078;-65
2021/05/15 07:21:24;;;;;;;1999.90;999.90;;;;;;;21.84;47.27;100335.94;15798480;28;20132;-63
2021/05/15 07:28:57;;;;;;;1999.90;999.90;;;;;;;21.23;49.08;100329.09;15797222;28;20071;-62
2021/05/15 07:36:28;;;;;;;1999.90;999.90;;;;;;;21.40;48.99;100324.56;15794113;28;20127;-65
2021/05/15 07:44:01;;;;;;;1999.90;999.90;;;;;;;23.06;45.53;100321.22;15787117;28;20044;-60
2021/05/15 07:51:32;;;;;;;1999.90;999.90;;;;;;;23.00;45.57;100322.91;15808207;28;20048;-64
2021/05/15 07:59:05;;;;;;;1999.90;999.90;;;;;;;23.40;43.84;100323.97;15804519;28;20075;-64
2021/05/15 08:06:37;;;;;;;1999.90;999.90;;;;;;;22.31;45.74;100315.66;15803195;28;20051;-64
2021/05/15 08:14:09;;;;;;;1999.90;999.90;;;;;;;23.61;43.02;100311.47;15806550;28;20032;-64
2021/05/15 08:21:41;;;;;;;1999.90;999.90;;;;;;;23.92;42.24;100305.66;15789920;28;20052;-63
2021/05/15 08:29:15;;;;;;;1999.90;999.90;;;;;;;24.29;42.52;100311.06;15807748;28;20105;-64
2021/05/15 08:36:47;;;;;;;1999.90;999.90;;;;;;;23.77;44.35;100299.41;15789332;28;20064;-63
2021/05/15 08:44:23;;;;;;;1999.90;999.90;;;;;;;23.86;42.81;100302.47;15789403;28;20062;-63
2021/05/15 08:51:55;;;;;;;1999.90;999.90;;;;;;;21.75;47.56;100292.22;15771920;28;20060;-63
2021/05/15 08:59:27;;;;;;;1999.90;999.90;;;;;;;24.33;41.36;100289.00;15805489;28;20081;-66
2021/05/15 09:06:59;;;;;;;1999.90;999.90;;;;;;;23.94;42.29;100286.88;15803284;28;20131;-65
2021/05/15 09:14:31;;;;;;;1999.90;999.90;;;;;;;24.83;40.24;100281.47;15802819;28;20036;-65
2021/05/15 09:22:05;;;;;;;1999.90;999.90;;;;;;;23.27;41.10;100280.25;15804354;28;20048;-62
2021/05/15 09:29:41;;;;;;;1999.90;999.90;;;;;;;25.87;37.94;100274.91;15787781;28;20036;-66
2021/05/15 09:37:13;;;;;;;1999.90;999.90;;;;;;;25.24;37.15;100272.38;15805969;28;20145;-62
2021/05/15 09:44:45;;;;;;;1999.90;999.90;;;;;;;25.38;37.17;100266.31;15808569;28;20051;-65
2021/05/15 09:52:17;;;;;;;1999.90;999.90;;;;;;;24.98;36.03;100251.34;15787393;28;20048;-66
2021/05/15 09:59:49;;;;;;;1999.90;999.90;;;;;;;25.88;35.47;100245.06;15794554;22;20044;-65
2021/05/15 10:07:23;;;;;;;;;;;;;;;25.65;37.21;100240.34;15796411;28;20055;-65
2021/05/15 10:14:56;;;;;;;1999.90;999.90;;;;;;;24.57;36.78;100229.03;15796951;28;20041;-64
2021/05/15 10:22:29;;;;;;;1999.90;999.90;;;;;;;23.53;37.19;100221.66;15809617;28;20052;-64
2021/05/15 10:30:12;;;;;;;1999.90;999.90;;;;;;;24.56;36.19;100225.38;15809686;28;20399;-63
2021/05/15 10:37:45;;;;;;;1999.90;999.90;;;;;;;25.17;36.12;100206.88;15827426;27;20531;-64
2021/05/15 10:45:33;;;;;;;1999.90;999.90;;;;;;;24.40;35.94;100203.34;15809412;28;20039;-64
2021/05/15 10:53:05;;;;;;;1999.90;999.90;;;;;;;23.04;38.48;100193.63;15809584;28;20139;-63
2021/05/15 11:00:38;;;;;;;1999.90;999.90;;;;;;;22.62;40.26;100202.75;15828100;27;20535;-64
2021/05/15 11:08:21;;;;;;;1999.90;999.90;;;;;;;23.39;38.42;100196.28;15813823;28;20577;-65
2021/05/15 11:16:05;;;;;;;1999.90;999.90;;;;;;;22.05;41.67;100194.94;15810796;28;20040;-63
2021/05/15 11:23:48;;;;;;;1999.90;999.90;;;;;;;21.26;41.73;100181.56;15807680;28;20051;-63
2021/05/15 11:31:22;;;;;;;1999.90;999.90;;;;;;;21.36;41.47;100167.66;15807039;28;20044;-64
2021/05/15 11:38:57;;;;;;;1999.90;999.90;;;;;;;21.45;39.97;100171.63;15806845;28;20424;-63
2021/05/15 11:46:29;;;;;;;1999.90;999.90;;;;;;;26.25;33.28;100177.03;15805361;28;20427;-63
2021/05/15 11:54:02;;;;;;;1999.90;999.90;;;;;;;27.50;32.79;100159.56;15804652;28;20044;-63
2021/05/15 12:01:36;;;;;;;1999.90;999.90;;;;;;;25.25;35.19;100137.75;15800653;28;20114;-65
2021/05/15 12:09:12;;;;;;;1999.90;999.90;;;;;;;25.57;34.56;100127.53;15786303;28;20510;-65
2021/05/15 12:16:44;;;;;;;1999.90;999.90;;;;;;;26.58;32.00;100152.78;15803698;28;20066;-63
2021/05/15 12:24:16;;;;;;;1999.90;999.90;;;;;;;26.31;33.98;100123.78;15801559;28;20048;-65
2021/05/15 12:31:48;;;;;;;1999.90;999.90;;;;;;;27.44;32.36;100118.47;15787508;28;20417;-65
2021/05/15 12:39:20;;;;;;;;;;;;;;;26.92;32.30;100103.44;15803570;28;20050;-65
2021/05/15 12:46:55;;;;;;;1999.90;999.90;;;;;;;28.34;28.94;100102.44;15808548;28;19920;-66
2021/05/15 12:54:28;;;;;;;1999.90;999.90;;;;;;;24.70;35.66;100082.47;15808639;28;20663;-66
2021/05/15 13:02:13;;;;;;;1999.90;999.90;;;;;;;22.31;39.33;100072.03;15790263;28;20048;-64
2021/05/15 13:09:44;;;;;;;1999.90;999.90;;;;;;;22.30;39.94;100076.13;15787120;28;20048;-65
2021/05/15 13:17:17;;;;;;;1999.90;999.90;;;;;;;21.98;39.14;100081.41;15804948;28;20078;-65
2021/05/15 13:24:49;;;;;;;1999.90;999.90;;;;;;;22.68;36.20;100070.25;15799768;28;20570;-64
2021/05/15 13:32:22;;;;;;;1999.90;999.90;;;;;;;22.83;40.21;100059.44;15799951;28;20048;-63
2021/05/15 13:39:55;;;;;;;1999.90;999.90;;;;;;;23.56;40.27;100047.13;15801123;28;20048;-65
2021/05/15 13:47:27;;;;;;;1999.90;999.90;;;;;;;22.71;39.92;100038.09;15804621;28;20153;-65
2021/05/15 13:54:59;;;;;;;1999.90;999.90;;;;;;;22.72;36.12;100034.84;15787319;28;20040;-66
2021/05/15 14:02:32;;;;;;;1999.90;999.90;;;;;;;22.65;36.87;100026.41;15803427;28;20097;-66
2021/05/15 14:10:07;;;;;;;1999.90;999.90;;;;;;;22.73;35.64;100008.00;15783337;28;20458;-66
2021/05/15 14:17:39;;;;;;;1999.90;999.90;;;;;;;23.03;36.66;100012.78;15798478;28;20298;-66
2021/05/15 14:25:11;;;;;;;1999.90;999.90;;;;;;;22.82;35.94;100009.47;15780202;28;20040;-65
2021/05/15 14:32:43;;;;;;;1999.90;999.90;;;;;;;22.34;36.56;99991.59;15798566;28;20075;-63
2021/05/15 14:40:18;;;;;;;1999.90;999.90;;;;;;;21.44;38.83;99988.41;15803390;28;20557;-65
2021/05/15 14:47:50;;;;;;;1999.90;999.90;;;;;;;21.39;43.69;99985.25;15799582;28;20119;-65
2021/05/15 14:55:22;;;;;;;1999.90;999.90;;;;;;;21.84;41.03;99971.66;15778608;28;20477;-66
2021/05/15 15:02:54;;;;;;;1999.90;999.90;;;;;;;22.03;39.59;99959.59;15798680;28;20449;-65
2021/05/15 15:10:26;;;;;;;1999.90;999.90;;;;;;;21.70;39.73;99952.00;15807201;28;20040;-66
2021/05/15 15:17:58;;;;;;;1999.90;999.90;;;;;;;22.03;42.92;99947.44;15806652;28;20587;-65
2021/05/15 15:25:30;;;;;;;1999.90;999.90;;;;;;;22.29;40.66;99935.25;15804622;28;20105;-64
2021/05/15 15:33:03;;;;;;;1999.90;999.90;;;;;;;21.83;39.18;99948.13;15804940;28;20173;-63
2021/05/15 15:40:35;;;;;;;1999.90;999.90;;;;;;;20.92;38.96;99939.56;15805734;28;20055;-63
2021/05/15 15:48:08;;;;;;;1999.90;999.90;;;;;;;20.65;39.19;99934.59;15805583;28;20043;-66
2021/05/15 15:55:39;;;;;;;1999.90;999.90;;;;;;;20.95;39.14;99931.03;15805666;28;20044;-66
2021/05/15 16:03:12;;;;;;;1999.90;999.90;;;;;;;20.97;39.64;99922.09;15851915;22;20063;-66
2021/05/15 16:10:44;;;;;;;1999.90;999.90;;;;;;;21.31;40.05;99903.03;15863922;28;20093;-65
2021/05/15 16:18:16;;;;;;;1999.90;999.90;;;;;;;20.90;39.05;99902.31;15813308;28;20510;-65
2021/05/15 16:25:48;;;;;;;1999.90;999.90;;;;;;;21.02;38.96;99907.44;15799554;28;20498;-66
2021/05/15 16:33:20;;;;;;;1999.90;999.90;;;;;;;20.86;34.91;99904.41;15799316;28;20060;-66
2021/05/15 16:40:53;;;;;;;1999.90;999.90;;;;;;;20.61;36.78;99913.16;15798032;28;20129;-65
2021/05/15 16:48:37;;;;;;;1999.90;999.90;;;;;;;20.63;36.49;99911.50;15797438;28;20135;-67
2021/05/15 16:56:10;;;;;;;1999.90;999.90;;;;;;;20.67;36.87;99912.28;15798478;28;20728;-67
2021/05/15 17:03:43;;;;;;;1999.90;999.90;;;;;;;20.32;37.82;99904.09;15796445;28;20097;-67
2021/05/15 17:11:14;;;;;;;;;;;;;;;20.18;38.33;99891.69;15797804;28;20048;-66
2021/05/15 17:18:47;;;;;;;1999.90;999.90;;;;;;;19.92;38.74;99889.50;15796884;28;20025;-67
2021/05/15 17:26:21;;;;;;;1999.90;999.90;;;;;;;20.10;39.29;99892.97;15795695;28;20484;-66
2021/05/15 17:33:54;;;;;;;1999.90;999.90;;;;;;;19.82;40.06;99888.34;15796938;28;20050;-68
2021/05/15 17:41:25;;;;;;;1999.90;999.90;;;;;;;19.76;40.60;99894.88;15795073;28;20048;-67
2021/05/15 17:48:58;;;;;;;1999.90;999.90;;;;;;;19.51;41.56;99889.34;15794534;28;20135;-67
2021/05/15 17:56:30;;;;;;;1999.90;999.90;;;;;;;19.23;42.55;99873.34;15794896;28;20064;-66
2021/05/15 18:04:03;;;;;;;1999.90;999.90;;;;;;;19.29;42.86;99878.16;15778006;28;20067;-64
2021/05/15 18:11:35;;;;;;;1999.90;999.90;;;;;;;19.38;42.69;99874.84;15777267;28;20056;-67
2021/05/15 18:19:07;;;;;;;1999.90;999.90;;;;;;;19.34;43.21;99876.91;15791501;28;20532;-67
2021/05/15 18:26:39;;;;;;;1999.90;999.90;;;;;;;19.12;43.92;99876.22;15776875;28;20097;-68
2021/05/15 18:34:11;;;;;;;1999.90;999.90;;;;;;;19.08;44.40;99883.94;15794846;28;20123;-67
2021/05/15 18:41:43;;;;;;;1999.90;999.90;;;;;;;18.77;44.69;99891.31;15805178;28;20181;-68
2021/05/15 18:49:15;;;;;;;1999.90;999.90;;;;;;;18.71;45.01;99890.09;15791061;28;20063;-63
2021/05/15 18:56:50;;;;;;;1999.90;999.90;;;;;;;18.42;46.03;99909.09;15791103;28;20036;-66
2021/05/15 19:04:25;;;;;;;1999.90;999.90;;;;;;;18.30;46.22;99918.81;15819215;28;20192;-66
2021/05/15 19:11:56;;;;;;;1999.90;999.90;;;;;;;18.29;47.07;99919.22;15807783;28;20058;-64
2021/05/15 19:19:30;;;;;;;1999.90;999.90;;;;;;;18.14;47.01;99919.22;15804360;28;20473;-64
2021/05/15 19:27:01;;;;;;;1999.90;999.90;;;;;;;17.86;48.19;99913.56;15805266;28;20075;-64
2021/05/15 19:34:37;;;;;;;1999.90;999.90;;;;;;;17.44;49.57;99915.06;15805634;28;20040;-66
2021/05/15 19:42:10;;;;;;;1999.90;999.90;;;;;;;17.72;50.34;99907.91;15804178;28;20154;-66
2021/05/15 19:49:42;;;;;;;1999.90;999.90;;;;;;;17.54;50.00;99914.28;15785301;28;20202;-65
2021/05/15 19:57:17;;;;;;;1999.90;999.90;;;;;;;17.46;50.37;99900.56;15802190;28;20068;-63
2021/05/15 20:04:50;;;;;;;1999.90;999.90;;;;;;;17.69;50.52;99901.03;15801716;28;20040;-63
2021/05/15 20:12:22;;;;;;;1999.90;999.90;;;;;;;17.41;50.88;99892.53;15801358;28;20150;-65
2021/05/15 20:19:54;;;;;;;1999.90;999.90;;;;;;;17.31;51.42;99891.28;15802174;28;20101;-64
2021/05/15 20:27:26;;;;;;;1999.90;999.90;;;;;;;17.18;51.62;99876.72;15802108;28;20083;-62
2021/05/15 20:34:59;;;;;;;1999.90;999.90;;;;;;;17.33;52.43;99880.41;15801396;28;20051;-62
2021/05/15 20:42:32;;;;;;;1999.90;999.90;;;;;;;16.99;53.28;99872.25;15800029;28;20189;-66
2021/05/15 20:50:06;;;;;;;1999.90;999.90;;;;;;;16.81;53.65;99874.19;15799217;28;20394;-65
2021/05/15 20:57:38;;;;;;;1999.90;999.90;;;;;;;16.50;54.24;99878.41;15782419;28;20044;-61
2021/05/15 21:05:11;;;;;;;1999.90;999.90;;;;;;;16.55;54.63;99891.31;15798088;28;20036;-62
2021/05/15 21:12:43;;;;;;;1999.90;999.90;;;;;;;16.25;55.60;99886.69;15799532;28;20484;-63
2021/05/15 21:20:16;;;;;;;1999.90;999.90;;;;;;;16.20;55.41;99883.44;15798168;28;20221;-64
2021/05/15 21:27:50;;;;;;;1999.90;999.90;;;;;;;16.09;55.90;99875.72;15796800;28;20138;-64
2021/05/15 21:35:22;;;;;;;1999.90;999.90;;;;;;;15.92;56.14;99875.59;15779200;28;20456;-64
2021/05/15 21:42:54;;;;;;;1999.90;999.90;;;;;;;15.82;56.89;99886.34;15795543;28;20048;-63
2021/05/15 21:50:27;;;;;;;1999.90;999.90;;;;;;;15.60;58.00;99878.91;15796750;28;20376;-63
2021/05/15 21:57:58;;;;;;;1999.90;999.90;;;;;;;15.43;58.42;99874.72;15793350;28;20080;-64
2021/05/15 22:05:31;;;;;;;1999.90;999.90;;;;;;;15.31;59.21;99869.34;15808552;28;20040;-64
2021/05/15 22:13:06;;;;;;;1999.90;999.90;;;;;;;14.94;60.38;99867.34;15807052;28;20151;-64
2021/05/15 22:20:43;;;;;;;1999.90;999.90;;;;;;;15.10;59.95;99869.13;15815226;28;20381;-63
2021/05/15 22:28:16;;;;;;;1999.90;999.90;;;;;;;14.72;61.18;99873.91;15817182;28;20044;-63
2021/05/15 22:35:54;;;;;;;1999.90;999.90;;;;;;;14.67;60.94;99871.41;15814609;28;20181;-63
2021/05/15 22:43:27;;;;;;;1999.90;999.90;;;;;;;14.54;60.86;99873.66;15815242;28;20051;-63
2021/05/15 22:51:02;;;;;;;;;;;;;;;14.46;60.74;99866.31;15817594;28;20064;-63
2021/05/15 22:58:34;;;;;;;1999.90;999.90;;;;;;;14.37;59.98;99862.94;15813619;28;20369;-62
2021/05/15 23:06:06;;;;;;;1999.90;999.90;;;;;;;14.44;59.53;99869.50;15815306;28;20515;-64
2021/05/15 23:13:38;;;;;;;1999.90;999.90;;;;;;;14.24;60.18;99859.56;15814724;28;20051;-64
2021/05/15 23:21:10;;;;;;;1999.90;999.90;;;;;;;14.28;60.18;99851.22;15814113;28;20060;-64
2021/05/15 23:28:42;;;;;;;1999.90;999.90;;;;;;;14.12;60.52;99840.16;15804082;28;20046;-64
2021/05/15 23:36:14;;;;;;;1999.90;999.90;;;;;;;14.14;60.21;99847.00;15800971;28;20298;-64
2021/05/15 23:43:46;;;;;;;1999.90;999.90;;;;;;;13.79;61.02;99830.44;15802752;28;20503;-64
2021/05/15 23:51:18;;;;;;;1999.90;999.90;;;;;;;14.00;61.00;99827.16;15802206;28;20040;-65
2021/05/15 23:58:50;;;;;;;1999.90;999.90;;;;;;;13.93;62.21;99818.63;15802404;28;20094;-64
